sensor_id;sensor_type;location;lat;lon;timestamp;pressure;altitude;pressure_sealevel;temperature;humidity
63535;BME280;55128;50.230;18.944;2023-02-04T00:00:59;97652.84;;;4.25;84.53
63535;BME280;55128;50.230;18.944;2023-02-04T00:06:00;97643.66;;;4.14;84.75
63535;BME280;55128;50.230;18.944;2023-02-04T00:11:00;97645.31;;;4.16;85.33
63535;BME280;55128;50.230;18.944;2023-02-04T00:16:00;97655.47;;;4.25;85.20
63535;BME280;55128;50.230;18.944;2023-02-04T00:21:01;97638.78;;;4.28;84.52
63535;BME280;55128;50.230;18.944;2023-02-04T00:26:01;97642.53;;;4.21;85.37
63535;BME280;55128;50.230;18.944;2023-02-04T00:31:02;97640.41;;;4.31;84.60
63535;BME280;55128;50.230;18.944;2023-02-04T00:36:02;97644.34;;;4.19;84.99
63535;BME280;55128;50.230;18.944;2023-02-04T00:41:02;97649.88;;;4.11;85.43
63535;BME280;55128;50.230;18.944;2023-02-04T00:46:03;97645.25;;;4.18;84.86
63535;BME280;55128;50.230;18.944;2023-02-04T00:51:03;97652.00;;;4.25;84.94
63535;BME280;55128;50.230;18.944;2023-02-04T00:56:04;97648.81;;;4.17;84.91
63535;BME280;55128;50.230;18.944;2023-02-04T01:01:04;97647.88;;;4.18;84.73
63535;BME280;55128;50.230;18.944;2023-02-04T01:06:05;97642.84;;;4.12;85.52
63535;BME280;55128;50.230;18.944;2023-02-04T01:11:05;97637.38;;;4.18;85.55
63535;BME280;55128;50.230;18.944;2023-02-04T01:16:06;97626.91;;;4.16;85.21
63535;BME280;55128;50.230;18.944;2023-02-04T01:21:06;97615.66;;;4.13;85.32
63535;BME280;55128;50.230;18.944;2023-02-04T01:26:06;97612.94;;;4.16;85.34
63535;BME280;55128;50.230;18.944;2023-02-04T01:31:07;97608.38;;;4.21;84.97
63535;BME280;55128;50.230;18.944;2023-02-04T01:36:08;97609.47;;;4.15;85.22
63535;BME280;55128;50.230;18.944;2023-02-04T01:41:08;97618.94;;;4.19;84.95
63535;BME280;55128;50.230;18.944;2023-02-04T01:46:08;97634.50;;;4.00;85.39
63535;BME280;55128;50.230;18.944;2023-02-04T01:51:11;97647.03;;;3.92;84.94
63535;BME280;55128;50.230;18.944;2023-02-04T01:56:24;97648.84;;;3.65;84.62
63535;BME280;55128;50.230;18.944;2023-02-04T02:01:45;97650.41;;;3.45;84.18
63535;BME280;55128;50.230;18.944;2023-02-04T02:06:52;97647.19;;;3.36;83.83
63535;BME280;55128;50.230;18.944;2023-02-04T02:11:54;97642.63;;;3.42;83.23
63535;BME280;55128;50.230;18.944;2023-02-04T02:16:54;97654.69;;;3.21;82.87
63535;BME280;55128;50.230;18.944;2023-02-04T02:22:18;97662.78;;;3.14;82.99
63535;BME280;55128;50.230;18.944;2023-02-04T02:27:21;97688.16;;;3.11;83.05
63535;BME280;55128;50.230;18.944;2023-02-04T02:32:21;97703.72;;;2.89;83.92
63535;BME280;55128;50.230;18.944;2023-02-04T02:37:23;97711.13;;;2.75;84.04
63535;BME280;55128;50.230;18.944;2023-02-04T02:42:23;97709.81;;;2.60;83.98
63535;BME280;55128;50.230;18.944;2023-02-04T02:47:24;97728.88;;;2.34;84.17
63535;BME280;55128;50.230;18.944;2023-02-04T02:52:25;97729.91;;;2.28;84.66
63535;BME280;55128;50.230;18.944;2023-02-04T02:57:26;97740.59;;;2.21;85.11
63535;BME280;55128;50.230;18.944;2023-02-04T03:02:26;97757.84;;;2.28;84.83
63535;BME280;55128;50.230;18.944;2023-02-04T03:07:26;97756.00;;;2.31;84.41
63535;BME280;55128;50.230;18.944;2023-02-04T03:12:27;97765.13;;;2.17;84.63
63535;BME280;55128;50.230;18.944;2023-02-04T03:17:28;97768.81;;;2.09;84.87
63535;BME280;55128;50.230;18.944;2023-02-04T03:22:28;97775.97;;;2.03;84.95
63535;BME280;55128;50.230;18.944;2023-02-04T03:27:29;97779.78;;;1.89;85.08
63535;BME280;55128;50.230;18.944;2023-02-04T03:32:29;97786.50;;;2.00;85.24
63535;BME280;55128;50.230;18.944;2023-02-04T03:37:30;97802.50;;;1.87;85.75
63535;BME280;55128;50.230;18.944;2023-02-04T03:42:30;97815.94;;;1.73;86.33
63535;BME280;55128;50.230;18.944;2023-02-04T03:47:30;97831.47;;;1.80;86.21
63535;BME280;55128;50.230;18.944;2023-02-04T03:52:31;97851.50;;;1.82;85.33
63535;BME280;55128;50.230;18.944;2023-02-04T03:57:31;97868.25;;;1.73;85.76
63535;BME280;55128;50.230;18.944;2023-02-04T04:02:31;97899.50;;;1.80;85.05
63535;BME280;55128;50.230;18.944;2023-02-04T04:07:32;97938.41;;;1.54;85.01
63535;BME280;55128;50.230;18.944;2023-02-04T04:12:32;97958.59;;;1.03;85.58
63535;BME280;55128;50.230;18.944;2023-02-04T04:17:33;98010.38;;;0.81;86.04
63535;BME280;55128;50.230;18.944;2023-02-04T04:22:33;98043.97;;;0.48;84.86
63535;BME280;55128;50.230;18.944;2023-02-04T04:27:33;98092.19;;;0.24;85.13
63535;BME280;55128;50.230;18.944;2023-02-04T04:32:34;98127.97;;;0.15;85.38
63535;BME280;55128;50.230;18.944;2023-02-04T04:37:34;98165.66;;;-0.10;86.23
63535;BME280;55128;50.230;18.944;2023-02-04T04:42:34;98191.66;;;-0.06;85.73
63535;BME280;55128;50.230;18.944;2023-02-04T04:47:35;98219.50;;;-0.08;85.72
63535;BME280;55128;50.230;18.944;2023-02-04T04:52:35;98236.84;;;-0.01;84.83
63535;BME280;55128;50.230;18.944;2023-02-04T04:57:36;98262.28;;;-0.24;85.81
63535;BME280;55128;50.230;18.944;2023-02-04T05:02:36;98302.34;;;-0.34;84.75
63535;BME280;55128;50.230;18.944;2023-02-04T05:07:37;98322.34;;;-0.33;84.50
63535;BME280;55128;50.230;18.944;2023-02-04T05:12:37;98341.44;;;-0.30;84.53
63535;BME280;55128;50.230;18.944;2023-02-04T05:17:37;98377.91;;;-0.22;84.62
63535;BME280;55128;50.230;18.944;2023-02-04T05:22:38;98426.56;;;-0.16;84.12
63535;BME280;55128;50.230;18.944;2023-02-04T05:27:38;98451.81;;;-0.26;83.29
63535;BME280;55128;50.230;18.944;2023-02-04T05:32:39;98494.53;;;-0.53;84.08
63535;BME280;55128;50.230;18.944;2023-02-04T05:37:39;98531.03;;;-0.56;84.10
63535;BME280;55128;50.230;18.944;2023-02-04T05:42:39;98558.84;;;-0.62;85.04
63535;BME280;55128;50.230;18.944;2023-02-04T05:47:41;98579.72;;;-0.74;84.13
63535;BME280;55128;50.230;18.944;2023-02-04T05:52:41;98617.06;;;-0.70;82.56
63535;BME280;55128;50.230;18.944;2023-02-04T05:57:42;98643.16;;;-0.66;83.20
63535;BME280;55128;50.230;18.944;2023-02-04T06:02:42;98671.81;;;-0.61;82.24
63535;BME280;55128;50.230;18.944;2023-02-04T06:07:42;98701.34;;;-0.81;82.12
63535;BME280;55128;50.230;18.944;2023-02-04T06:12:43;98743.91;;;-0.82;82.27
63535;BME280;55128;50.230;18.944;2023-02-04T06:17:43;98770.00;;;-0.71;80.87
63535;BME280;55128;50.230;18.944;2023-02-04T06:22:43;98776.06;;;-0.69;79.65
63535;BME280;55128;50.230;18.944;2023-02-04T06:27:44;98802.97;;;-0.77;80.34
63535;BME280;55128;50.230;18.944;2023-02-04T06:32:44;98832.56;;;-0.69;79.70
63535;BME280;55128;50.230;18.944;2023-02-04T06:37:44;98856.88;;;-0.70;80.15
63535;BME280;55128;50.230;18.944;2023-02-04T06:42:45;98880.34;;;-0.66;80.50
63535;BME280;55128;50.230;18.944;2023-02-04T06:47:45;98921.22;;;-0.60;79.94
63535;BME280;55128;50.230;18.944;2023-02-04T06:52:46;98929.88;;;-0.66;79.53
63535;BME280;55128;50.230;18.944;2023-02-04T06:57:46;98954.22;;;-0.59;79.60
63535;BME280;55128;50.230;18.944;2023-02-04T07:02:47;98967.25;;;-0.65;78.94
63535;BME280;55128;50.230;18.944;2023-02-04T07:07:47;99009.84;;;-0.60;78.46
63535;BME280;55128;50.230;18.944;2023-02-04T07:12:48;99024.69;;;-0.44;78.43
63535;BME280;55128;50.230;18.944;2023-02-04T07:17:48;99046.38;;;-0.54;78.22
63535;BME280;55128;50.230;18.944;2023-02-04T07:22:48;99065.44;;;-0.63;77.71
63535;BME280;55128;50.230;18.944;2023-02-04T07:27:49;99082.00;;;-0.54;77.38
63535;BME280;55128;50.230;18.944;2023-02-04T07:32:49;99088.13;;;-0.48;77.52
63535;BME280;55128;50.230;18.944;2023-02-04T07:37:49;99104.53;;;-0.63;78.65
63535;BME280;55128;50.230;18.944;2023-02-04T07:42:50;99103.66;;;-0.65;75.08
63535;BME280;55128;50.230;18.944;2023-02-04T07:47:50;99121.97;;;-0.60;75.10
63535;BME280;55128;50.230;18.944;2023-02-04T07:52:50;99147.22;;;-0.45;75.65
63535;BME280;55128;50.230;18.944;2023-02-04T07:57:51;99161.94;;;-0.56;75.68
63535;BME280;55128;50.230;18.944;2023-02-04T08:02:51;99171.56;;;-0.48;75.56
63535;BME280;55128;50.230;18.944;2023-02-04T08:07:52;99193.31;;;-0.46;75.56
63535;BME280;55128;50.230;18.944;2023-02-04T08:12:52;99204.53;;;-0.53;75.37
63535;BME280;55128;50.230;18.944;2023-02-04T08:17:52;99216.81;;;-0.40;75.77
63535;BME280;55128;50.230;18.944;2023-02-04T08:22:53;99238.72;;;-0.22;75.15
63535;BME280;55128;50.230;18.944;2023-02-04T08:27:53;99241.19;;;-0.39;75.47
63535;BME280;55128;50.230;18.944;2023-02-04T08:32:54;99271.66;;;-0.30;73.68
63535;BME280;55128;50.230;18.944;2023-02-04T08:37:54;99293.56;;;-0.13;74.54
63535;BME280;55128;50.230;18.944;2023-02-04T08:42:54;99297.78;;;-0.29;72.85
63535;BME280;55128;50.230;18.944;2023-02-04T08:47:55;99316.34;;;0.13;73.44
63535;BME280;55128;50.230;18.944;2023-02-04T08:52:55;99311.03;;;-0.03;71.67
63535;BME280;55128;50.230;18.944;2023-02-04T08:57:56;99317.50;;;0.58;72.95
63535;BME280;55128;50.230;18.944;2023-02-04T09:02:58;99330.03;;;2.67;64.53
63535;BME280;55128;50.230;18.944;2023-02-04T09:07:58;99353.66;;;2.34;67.93
63535;BME280;55128;50.230;18.944;2023-02-04T09:12:58;99345.72;;;1.33;71.49
63535;BME280;55128;50.230;18.944;2023-02-04T09:17:59;99358.78;;;1.30;70.80
63535;BME280;55128;50.230;18.944;2023-02-04T09:23:14;99369.75;;;3.81;64.83
63535;BME280;55128;50.230;18.944;2023-02-04T09:28:15;99398.66;;;4.83;60.09
63535;BME280;55128;50.230;18.944;2023-02-04T09:33:16;99402.75;;;4.15;59.50
63535;BME280;55128;50.230;18.944;2023-02-04T09:38:16;99423.31;;;6.19;56.71
63535;BME280;55128;50.230;18.944;2023-02-04T09:43:38;99429.84;;;8.66;53.23
63535;BME280;55128;50.230;18.944;2023-02-04T09:48:39;99437.97;;;8.21;47.81
63535;BME280;55128;50.230;18.944;2023-02-04T09:53:39;99444.19;;;6.87;49.62
63535;BME280;55128;50.230;18.944;2023-02-04T09:58:40;99461.44;;;4.18;55.74
63535;BME280;55128;50.230;18.944;2023-02-04T10:03:43;99453.81;;;5.72;51.38
63535;BME280;55128;50.230;18.944;2023-02-04T10:08:48;99462.47;;;3.91;55.22
63535;BME280;55128;50.230;18.944;2023-02-04T10:13:51;99461.13;;;4.61;54.79
63535;BME280;55128;50.230;18.944;2023-02-04T10:18:53;99468.06;;;2.96;55.79
63535;BME280;55128;50.230;18.944;2023-02-04T10:23:55;99479.44;;;2.25;58.00
63535;BME280;55128;50.230;18.944;2023-02-04T10:29:11;99474.97;;;1.87;57.63
63535;BME280;55128;50.230;18.944;2023-02-04T10:34:14;99484.66;;;2.78;55.32
63535;BME280;55128;50.230;18.944;2023-02-04T10:39:17;99498.53;;;1.84;55.16
63535;BME280;55128;50.230;18.944;2023-02-04T10:44:29;99499.53;;;2.49;56.34
63535;BME280;55128;50.230;18.944;2023-02-04T10:49:30;99508.25;;;3.05;55.85
63535;BME280;55128;50.230;18.944;2023-02-04T10:54:35;99512.66;;;2.48;56.22
63535;BME280;55128;50.230;18.944;2023-02-04T10:59:37;99535.28;;;2.17;57.06
63535;BME280;55128;50.230;18.944;2023-02-04T11:04:37;99521.25;;;1.98;57.29
63535;BME280;55128;50.230;18.944;2023-02-04T11:09:40;99538.78;;;2.32;56.05
63535;BME280;55128;50.230;18.944;2023-02-04T11:14:41;99536.13;;;2.11;54.64
63535;BME280;55128;50.230;18.944;2023-02-04T11:19:41;99537.03;;;2.14;54.89
63535;BME280;55128;50.230;18.944;2023-02-04T11:24:43;99554.41;;;1.99;55.64
63535;BME280;55128;50.230;18.944;2023-02-04T11:29:44;99549.22;;;2.16;54.27
63535;BME280;55128;50.230;18.944;2023-02-04T11:34:48;99563.06;;;1.79;52.22
63535;BME280;55128;50.230;18.944;2023-02-04T11:39:50;99563.81;;;1.53;55.01
63535;BME280;55128;50.230;18.944;2023-02-04T11:44:53;99565.69;;;1.79;53.49
63535;BME280;55128;50.230;18.944;2023-02-04T11:49:57;99575.44;;;2.17;53.25
63535;BME280;55128;50.230;18.944;2023-02-04T11:54:59;99576.06;;;1.61;54.15
63535;BME280;55128;50.230;18.944;2023-02-04T11:59:59;99575.81;;;1.24;56.22
63535;BME280;55128;50.230;18.944;2023-02-04T12:05:14;99597.81;;;1.50;54.98
63535;BME280;55128;50.230;18.944;2023-02-04T12:15:21;99596.69;;;1.17;56.18
63535;BME280;55128;50.230;18.944;2023-02-04T12:20:25;99599.41;;;1.30;57.25
63535;BME280;55128;50.230;18.944;2023-02-04T12:25:25;99608.03;;;1.15;54.64
63535;BME280;55128;50.230;18.944;2023-02-04T12:30:29;99605.59;;;1.40;55.51
63535;BME280;55128;50.230;18.944;2023-02-04T12:35:29;99616.97;;;1.49;55.57
63535;BME280;55128;50.230;18.944;2023-02-04T12:40:30;99612.28;;;1.02;56.02
63535;BME280;55128;50.230;18.944;2023-02-04T12:45:30;99614.91;;;1.04;55.84
63535;BME280;55128;50.230;18.944;2023-02-04T12:50:31;99617.59;;;1.16;56.23
63535;BME280;55128;50.230;18.944;2023-02-04T12:55:31;99617.84;;;1.47;57.01
63535;BME280;55128;50.230;18.944;2023-02-04T13:00:32;99635.94;;;1.17;56.92
63535;BME280;55128;50.230;18.944;2023-02-04T13:05:32;99640.31;;;1.19;57.68
63535;BME280;55128;50.230;18.944;2023-02-04T13:10:35;99642.66;;;0.91;57.22
63535;BME280;55128;50.230;18.944;2023-02-04T13:15:35;99643.66;;;1.07;57.30
63535;BME280;55128;50.230;18.944;2023-02-04T13:20:35;99653.38;;;1.22;57.64
63535;BME280;55128;50.230;18.944;2023-02-04T13:25:36;99671.72;;;1.23;57.32
63535;BME280;55128;50.230;18.944;2023-02-04T13:30:36;99680.59;;;1.42;57.75
63535;BME280;55128;50.230;18.944;2023-02-04T13:35:36;99677.59;;;0.99;57.18
63535;BME280;55128;50.230;18.944;2023-02-04T13:40:37;99684.34;;;0.78;57.07
63535;BME280;55128;50.230;18.944;2023-02-04T13:45:38;99690.25;;;0.59;59.01
63535;BME280;55128;50.230;18.944;2023-02-04T13:50:39;99696.69;;;0.89;57.42
63535;BME280;55128;50.230;18.944;2023-02-04T13:55:40;99707.06;;;0.84;58.11
63535;BME280;55128;50.230;18.944;2023-02-04T14:00:40;99701.84;;;0.83;58.98
63535;BME280;55128;50.230;18.944;2023-02-04T14:05:40;99705.13;;;0.66;60.03
63535;BME280;55128;50.230;18.944;2023-02-04T14:10:41;99712.75;;;0.48;60.42
63535;BME280;55128;50.230;18.944;2023-02-04T14:15:41;99720.59;;;0.48;60.77
63535;BME280;55128;50.230;18.944;2023-02-04T14:20:41;99725.94;;;0.57;60.52
63535;BME280;55128;50.230;18.944;2023-02-04T14:25:42;99718.09;;;0.57;60.94
63535;BME280;55128;50.230;18.944;2023-02-04T14:30:42;99726.72;;;0.50;62.17
63535;BME280;55128;50.230;18.944;2023-02-04T14:35:43;99739.69;;;0.44;62.15
63535;BME280;55128;50.230;18.944;2023-02-04T14:40:43;99736.16;;;0.38;62.17
63535;BME280;55128;50.230;18.944;2023-02-04T14:45:44;99735.31;;;0.40;64.02
63535;BME280;55128;50.230;18.944;2023-02-04T14:50:44;99724.16;;;0.53;63.38
63535;BME280;55128;50.230;18.944;2023-02-04T14:55:45;99734.69;;;0.61;63.17
63535;BME280;55128;50.230;18.944;2023-02-04T15:00:45;99754.59;;;0.51;64.02
63535;BME280;55128;50.230;18.944;2023-02-04T15:05:46;99766.28;;;0.16;70.48
63535;BME280;55128;50.230;18.944;2023-02-04T15:10:46;99768.56;;;-0.07;73.50
63535;BME280;55128;50.230;18.944;2023-02-04T15:15:46;99782.47;;;-0.08;74.29
63535;BME280;55128;50.230;18.944;2023-02-04T15:20:47;99776.34;;;-0.10;74.73
63535;BME280;55128;50.230;18.944;2023-02-04T15:25:47;99783.13;;;-0.21;73.42
63535;BME280;55128;50.230;18.944;2023-02-04T15:30:47;99782.81;;;-0.40;74.50
63535;BME280;55128;50.230;18.944;2023-02-04T15:35:48;99794.31;;;-0.28;74.35
63535;BME280;55128;50.230;18.944;2023-02-04T15:40:48;99801.25;;;-0.29;74.00
63535;BME280;55128;50.230;18.944;2023-02-04T15:45:48;99796.91;;;-0.30;74.10
63535;BME280;55128;50.230;18.944;2023-02-04T15:50:49;99789.88;;;-0.35;74.03
63535;BME280;55128;50.230;18.944;2023-02-04T15:55:50;99799.53;;;-0.30;73.50
63535;BME280;55128;50.230;18.944;2023-02-04T16:00:50;99791.56;;;-0.37;74.12
63535;BME280;55128;50.230;18.944;2023-02-04T16:05:51;99800.25;;;-0.37;73.32
63535;BME280;55128;50.230;18.944;2023-02-04T16:10:51;99796.16;;;-0.21;71.66
63535;BME280;55128;50.230;18.944;2023-02-04T16:15:53;99805.44;;;-0.38;72.03
63535;BME280;55128;50.230;18.944;2023-02-04T16:20:53;99810.75;;;-0.32;70.61
63535;BME280;55128;50.230;18.944;2023-02-04T16:25:54;99820.19;;;-0.41;71.36
63535;BME280;55128;50.230;18.944;2023-02-04T16:30:54;99824.94;;;-0.18;70.18
63535;BME280;55128;50.230;18.944;2023-02-04T16:36:00;99820.91;;;-0.49;70.82
63535;BME280;55128;50.230;18.944;2023-02-04T16:41:01;99836.56;;;-0.49;71.08
63535;BME280;55128;50.230;18.944;2023-02-04T16:46:02;99827.03;;;-0.49;71.50
63535;BME280;55128;50.230;18.944;2023-02-04T16:51:03;99832.13;;;-0.53;71.72
63535;BME280;55128;50.230;18.944;2023-02-04T16:56:03;99835.41;;;-0.65;72.72
63535;BME280;55128;50.230;18.944;2023-02-04T17:01:04;99833.00;;;-0.54;73.16
63535;BME280;55128;50.230;18.944;2023-02-04T17:06:05;99843.25;;;-0.64;72.77
63535;BME280;55128;50.230;18.944;2023-02-04T17:11:05;99843.19;;;-0.67;73.51
63535;BME280;55128;50.230;18.944;2023-02-04T17:16:38;99850.31;;;-0.56;73.58
63535;BME280;55128;50.230;18.944;2023-02-04T17:21:38;99836.38;;;-0.60;74.01
63535;BME280;55128;50.230;18.944;2023-02-04T17:26:39;99839.94;;;-0.55;73.32
63535;BME280;55128;50.230;18.944;2023-02-04T17:31:40;99842.88;;;-0.84;74.24
63535;BME280;55128;50.230;18.944;2023-02-04T17:36:42;99849.06;;;-0.79;74.12
63535;BME280;55128;50.230;18.944;2023-02-04T17:41:42;99844.28;;;-1.00;74.56
63535;BME280;55128;50.230;18.944;2023-02-04T17:46:42;99861.22;;;-0.77;74.19
63535;BME280;55128;50.230;18.944;2023-02-04T17:51:43;99858.59;;;-0.79;74.59
63535;BME280;55128;50.230;18.944;2023-02-04T17:56:43;99868.09;;;-0.81;74.83
63535;BME280;55128;50.230;18.944;2023-02-04T18:01:43;99861.34;;;-0.71;74.39
63535;BME280;55128;50.230;18.944;2023-02-04T18:06:44;99865.84;;;-0.64;74.25
63535;BME280;55128;50.230;18.944;2023-02-04T18:11:46;99874.34;;;-0.74;74.56
63535;BME280;55128;50.230;18.944;2023-02-04T18:16:46;99875.69;;;-0.49;73.57
63535;BME280;55128;50.230;18.944;2023-02-04T18:21:50;99875.06;;;-0.37;72.46
63535;BME280;55128;50.230;18.944;2023-02-04T18:26:52;99867.09;;;-0.44;71.86
63535;BME280;55128;50.230;18.944;2023-02-04T18:32:09;99877.28;;;-0.57;72.02
63535;BME280;55128;50.230;18.944;2023-02-04T18:42:27;99865.13;;;-0.55;70.69
63535;BME280;55128;50.230;18.944;2023-02-04T18:47:30;99865.91;;;-0.61;69.90
63535;BME280;55128;50.230;18.944;2023-02-04T18:52:35;99871.03;;;-0.64;70.14
63535;BME280;55128;50.230;18.944;2023-02-04T18:57:38;99863.28;;;-0.61;69.51
63535;BME280;55128;50.230;18.944;2023-02-04T19:02:51;99868.06;;;-0.84;70.17
63535;BME280;55128;50.230;18.944;2023-02-04T19:13:37;99867.41;;;-0.72;69.17
63535;BME280;55128;50.230;18.944;2023-02-04T19:18:40;99872.56;;;-0.75;69.30
63535;BME280;55128;50.230;18.944;2023-02-04T19:23:43;99881.31;;;-0.72;70.07
63535;BME280;55128;50.230;18.944;2023-02-04T19:28:44;99882.09;;;-0.77;70.99
63535;BME280;55128;50.230;18.944;2023-02-04T19:33:45;99906.25;;;-0.85;73.95
63535;BME280;55128;50.230;18.944;2023-02-04T19:38:46;99906.72;;;-1.04;78.26
63535;BME280;55128;50.230;18.944;2023-02-04T19:43:47;99901.78;;;-1.33;79.09
63535;BME280;55128;50.230;18.944;2023-02-04T19:48:47;99901.19;;;-1.20;79.47
63535;BME280;55128;50.230;18.944;2023-02-04T19:53:49;99900.50;;;-1.11;78.42
63535;BME280;55128;50.230;18.944;2023-02-04T19:58:53;99900.44;;;-1.14;78.36
63535;BME280;55128;50.230;18.944;2023-02-04T20:03:54;99906.59;;;-1.10;77.95
63535;BME280;55128;50.230;18.944;2023-02-04T20:19:21;99922.88;;;-1.21;76.42
63535;BME280;55128;50.230;18.944;2023-02-04T20:24:34;99950.13;;;-1.43;76.65
63535;BME280;55128;50.230;18.944;2023-02-04T20:29:34;99950.31;;;-1.37;77.26
63535;BME280;55128;50.230;18.944;2023-02-04T20:34:35;99952.88;;;-1.38;76.09
63535;BME280;55128;50.230;18.944;2023-02-04T20:39:39;99962.31;;;-1.42;74.72
63535;BME280;55128;50.230;18.944;2023-02-04T20:44:39;99957.94;;;-1.44;73.95
63535;BME280;55128;50.230;18.944;2023-02-04T20:49:41;99962.50;;;-1.34;74.25
63535;BME280;55128;50.230;18.944;2023-02-04T20:54:41;99968.38;;;-1.43;74.33
63535;BME280;55128;50.230;18.944;2023-02-04T21:10:33;99978.91;;;-1.38;72.83
63535;BME280;55128;50.230;18.944;2023-02-04T21:15:35;99978.44;;;-1.22;73.05
63535;BME280;55128;50.230;18.944;2023-02-04T21:20:35;99983.19;;;-1.40;71.99
63535;BME280;55128;50.230;18.944;2023-02-04T21:25:36;99986.06;;;-1.29;71.31
63535;BME280;55128;50.230;18.944;2023-02-04T21:30:37;99994.75;;;-1.64;72.54
63535;BME280;55128;50.230;18.944;2023-02-04T21:35:38;99991.38;;;-1.60;72.65
63535;BME280;55128;50.230;18.944;2023-02-04T21:40:39;100007.09;;;-1.57;71.35
63535;BME280;55128;50.230;18.944;2023-02-04T21:45:39;100009.88;;;-1.49;70.60
63535;BME280;55128;50.230;18.944;2023-02-04T21:50:40;100007.78;;;-1.64;68.68
63535;BME280;55128;50.230;18.944;2023-02-04T21:55:41;100009.41;;;-1.67;69.59
63535;BME280;55128;50.230;18.944;2023-02-04T22:00:44;100006.50;;;-1.80;69.04
63535;BME280;55128;50.230;18.944;2023-02-04T22:05:45;100018.00;;;-1.71;69.72
63535;BME280;55128;50.230;18.944;2023-02-04T22:10:45;100023.34;;;-1.67;68.89
63535;BME280;55128;50.230;18.944;2023-02-04T22:15:45;100029.78;;;-1.86;69.76
63535;BME280;55128;50.230;18.944;2023-02-04T22:20:47;100033.06;;;-1.93;69.25
63535;BME280;55128;50.230;18.944;2023-02-04T22:25:48;100047.25;;;-1.82;68.87
63535;BME280;55128;50.230;18.944;2023-02-04T22:30:48;100049.69;;;-1.86;68.92
63535;BME280;55128;50.230;18.944;2023-02-04T22:35:48;100061.06;;;-1.83;68.99
63535;BME280;55128;50.230;18.944;2023-02-04T22:40:49;100065.53;;;-1.79;68.63
63535;BME280;55128;50.230;18.944;2023-02-04T22:45:49;100074.75;;;-1.90;69.55
63535;BME280;55128;50.230;18.944;2023-02-04T22:50:49;100077.41;;;-1.88;70.38
63535;BME280;55128;50.230;18.944;2023-02-04T22:55:50;100071.59;;;-1.80;69.89
63535;BME280;55128;50.230;18.944;2023-02-04T23:00:50;100074.53;;;-1.66;69.52
63535;BME280;55128;50.230;18.944;2023-02-04T23:05:50;100083.94;;;-1.72;69.89
63535;BME280;55128;50.230;18.944;2023-02-04T23:10:51;100087.59;;;-1.64;70.30
63535;BME280;55128;50.230;18.944;2023-02-04T23:15:51;100087.69;;;-1.61;70.29
63535;BME280;55128;50.230;18.944;2023-02-04T23:20:52;100082.34;;;-1.66;70.29
63535;BME280;55128;50.230;18.944;2023-02-04T23:25:52;100087.84;;;-1.55;70.57
63535;BME280;55128;50.230;18.944;2023-02-04T23:30:52;100092.44;;;-1.46;70.47
63535;BME280;55128;50.230;18.944;2023-02-04T23:35:53;100088.16;;;-1.44;70.59
63535;BME280;55128;50.230;18.944;2023-02-04T23:40:53;100091.47;;;-1.50;71.28
63535;BME280;55128;50.230;18.944;2023-02-04T23:45:56;100088.88;;;-1.48;71.58
63535;BME280;55128;50.230;18.944;2023-02-04T23:50:56;100083.09;;;-1.38;71.37
63535;BME280;55128;50.230;18.944;2023-02-04T23:55:57;100091.63;;;-1.44;72.81
